Time;durP1;ratioP1;P1;durP2;ratioP2;P2;SDS_P1;SDS_P2;PMS_P1;PMS_P2;Temp;Humidity;BMP_temperature;BMP_pressure;BME280_temperature;BME280_humidity;BME280_pressure;Samples;Min_cycle;Max_cycle;Signal;HPM_P1;HPM_P2
2022/07/10 00:02:03;;;;;;;5.60;1.17;;;;;;;15.75;63.77;102777.63;4973807;28;20089;-30
2022/07/10 00:04:28;;;;;;;7.22;1.90;;;;;;;15.74;63.82;102772.34;4972629;28;20038;-30
2022/07/10 00:06:55;;;;;;;10.02;1.27;;;;;;;15.74;63.88;102773.19;4973523;28;20038;-31
2022/07/10 00:09:22;;;;;;;9.00;1.30;;;;;;;15.77;63.58;102769.28;4973376;28;20062;-30
2022/07/10 00:11:47;;;;;;;7.07;1.30;;;;;;;15.76;63.14;102765.72;4973125;28;20035;-30
2022/07/10 00:14:12;;;;;;;9.43;1.70;;;;;;;15.73;63.56;102773.38;4973619;28;20466;-31
2022/07/10 00:16:38;;;;;;;8.13;1.23;;;;;;;15.65;63.74;102773.34;4973340;28;20508;-31
2022/07/10 00:19:03;;;;;;;5.13;1.02;;;;;;;15.63;63.31;102768.06;4973201;28;20042;-29
2022/07/10 00:21:28;;;;;;;5.40;1.00;;;;;;;15.68;63.39;102767.56;4973626;28;20037;-29
2022/07/10 00:23:54;;;;;;;9.00;1.58;;;;;;;15.69;63.18;102769.28;4973880;28;20073;-29
2022/07/10 00:26:19;;;;;;;5.28;1.00;;;;;;;15.58;63.52;102768.56;4973502;28;20454;-29
2022/07/10 00:28:44;;;;;;;6.20;1.10;;;;;;;15.54;63.67;102760.94;4969636;28;20122;-29
2022/07/10 00:31:10;;;;;;;10.43;1.35;;;;;;;15.50;63.81;102755.00;4967120;28;20324;-29
2022/07/10 00:33:37;;;;;;;7.43;1.40;;;;;;;15.51;64.25;102755.88;4962808;28;20093;-30
2022/07/10 00:36:03;;;;;;;6.50;1.52;;;;;;;15.50;64.01;102755.00;4959105;28;20117;-28
2022/07/10 00:38:29;;;;;;;11.40;1.73;;;;;;;15.50;64.20;102754.16;4973415;28;20029;-30
2022/07/10 00:40:54;;;;;;;6.78;1.10;;;;;;;15.50;64.10;102751.44;4972987;28;20045;-30
2022/07/10 00:43:20;;;;;;;6.50;1.27;;;;;;;15.47;64.33;102749.06;4972544;28;20636;-27
2022/07/10 00:45:45;;;;;;;7.97;1.20;;;;;;;15.45;64.77;102749.22;4972965;28;20069;-30
2022/07/10 00:48:10;;;;;;;5.07;1.40;;;;;;;15.46;64.97;102752.81;4973404;28;20023;-30
2022/07/10 00:50:36;;;;;;;9.40;2.10;;;;;;;15.46;64.85;102748.22;4973586;28;20030;-28
2022/07/10 00:53:02;;;;;;;5.18;1.58;;;;;;;15.45;64.74;102751.94;4972079;28;20029;-30
2022/07/10 00:55:28;;;;;;;5.25;1.35;;;;;;;15.44;65.14;102754.84;4973075;28;20121;-30
2022/07/10 00:57:54;;;;;;;7.88;1.13;;;;;;;15.42;65.18;102748.72;4972081;28;20038;-28
2022/07/10 01:00:19;;;;;;;8.43;1.42;;;;;;;15.40;65.45;102743.44;4970068;28;20077;-29
2022/07/10 01:02:45;;;;;;;6.82;1.30;;;;;;;15.37;65.02;102751.91;4962354;28;20395;-29
2022/07/10 01:05:10;;;;;;;7.45;1.48;;;;;;;15.38;65.36;102748.22;4973078;28;20035;-30
2022/07/10 01:07:37;;;;;;;5.70;1.30;;;;;;;15.37;65.78;102743.78;4973044;28;20092;-30
2022/07/10 01:10:02;;;;;;;3.58;1.30;;;;;;;15.38;65.62;102740.06;4972676;28;20316;-29
2022/07/10 01:12:28;;;;;;;6.25;1.35;;;;;;;15.36;65.32;102728.53;4972721;28;20100;-30
2022/07/10 01:14:54;;;;;;;3.80;1.05;;;;;;;15.41;65.27;102733.47;4972929;28;20116;-29
2022/07/10 01:17:19;;;;;;;5.22;1.23;;;;;;;15.38;65.67;102731.94;4973075;28;20030;-30
2022/07/10 01:19:45;;;;;;;4.68;1.00;;;;;;;15.34;65.86;102727.84;4972592;28;20054;-31
2022/07/10 01:22:11;;;;;;;9.15;1.20;;;;;;;15.34;66.45;102730.56;4972385;28;20034;-29
2022/07/10 01:24:36;;;;;;;11.13;1.55;;;;;;;15.34;66.36;102727.84;4972616;28;20038;-30
2022/07/10 01:27:01;;;;;;;5.50;1.33;;;;;;;15.35;66.42;102722.25;4972543;28;20176;-29
2022/07/10 01:29:27;;;;;;;7.22;1.38;;;;;;;15.34;66.46;102725.13;4972278;28;20118;-28
2022/07/10 01:31:52;;;;;;;7.57;1.42;;;;;;;15.31;66.54;102720.88;4971332;28;20026;-30
2022/07/10 01:34:18;;;;;;;9.25;1.40;;;;;;;15.27;67.18;102721.38;4972215;28;20097;-30
2022/07/10 01:36:43;;;;;;;7.45;1.30;;;;;;;15.28;67.11;102726.66;4972295;28;20482;-31
2022/07/10 01:39:08;;;;;;;8.13;1.25;;;;;;;15.26;67.27;102719.69;4971035;28;20064;-30
2022/07/10 01:41:34;;;;;;;7.47;1.20;;;;;;;15.26;67.31;102715.13;4972138;28;20027;-29
2022/07/10 01:44:00;;;;;;;6.20;1.52;;;;;;;15.26;67.60;102714.28;4972287;28;20452;-29
2022/07/10 01:46:25;;;;;;;8.93;1.40;;;;;;;15.23;67.57;102718.16;4972066;28;20347;-29
2022/07/10 01:48:51;;;;;;;7.63;1.38;;;;;;;15.21;67.61;102705.78;4971986;28;20066;-29
2022/07/10 01:51:16;;;;;;;8.93;2.00;;;;;;;15.25;67.50;102713.44;4971558;28;20031;-29
2022/07/10 01:53:41;;;;;;;5.25;1.08;;;;;;;15.21;67.72;102716.63;4972130;28;20125;-28
2022/07/10 01:56:09;;;;;;;6.18;1.08;;;;;;;15.20;68.04;102714.94;4971682;28;20083;-32
2022/07/10 01:58:35;;;;;;;13.85;1.35;;;;;;;15.20;68.49;102709.53;4970877;28;20033;-31
2022/07/10 02:01:02;;;;;;;7.53;1.35;;;;;;;15.22;68.54;102712.91;4969965;28;20030;-30
2022/07/10 02:06:11;;;;;;;5.85;1.30;;;;;;;15.18;68.44;102701.53;4972091;28;20045;-30
2022/07/10 02:08:37;;;;;;;4.28;1.35;;;;;;;15.20;68.43;102704.94;4972956;28;20039;-30
2022/07/10 02:11:02;;;;;;;5.70;1.38;;;;;;;15.19;68.78;102711.38;4971465;28;20116;-30
2022/07/10 02:13:27;;;;;;;4.82;1.35;;;;;;;15.20;68.56;102712.25;4972122;28;20088;-30
2022/07/10 02:15:54;;;;;;;7.00;1.30;;;;;;;15.16;68.82;102695.44;4972378;28;20422;-28
2022/07/10 02:18:20;;;;;;;7.22;1.20;;;;;;;15.15;69.11;102694.59;4971807;28;20129;-28
2022/07/10 02:20:45;;;;;;;4.25;1.30;;;;;;;15.15;69.24;102700.00;4972080;28;20169;-28
2022/07/10 02:23:11;;;;;;;10.25;1.35;;;;;;;15.17;69.31;102704.44;4970606;28;20232;-29
2022/07/10 02:25:36;;;;;;;10.57;1.30;;;;;;;15.15;69.08;102710.88;4971999;28;20031;-30
2022/07/10 02:28:01;;;;;;;12.95;1.40;;;;;;;15.14;69.14;102716.47;4971920;28;20510;-29
2022/07/10 02:30:27;;;;;;;3.33;1.17;;;;;;;15.14;69.26;102724.59;4971881;28;20117;-29
2022/07/10 02:32:52;;;;;;;4.75;1.10;;;;;;;15.12;69.32;102713.06;4971808;28;20454;-30
2022/07/10 02:35:18;;;;;;;8.27;1.42;;;;;;;15.13;69.52;102721.03;4971389;28;20074;-30
2022/07/10 02:37:43;;;;;;;8.45;1.73;;;;;;;15.15;69.58;102718.16;4971056;28;20045;-30
2022/07/10 02:40:09;;;;;;;13.90;1.60;;;;;;;15.14;69.79;102714.59;4971218;28;20474;-31
2022/07/10 02:42:34;;;;;;;5.95;1.20;;;;;;;15.19;70.05;102713.22;4971485;28;20505;-30
2022/07/10 02:44:59;;;;;;;8.60;1.58;;;;;;;15.23;69.70;102714.63;4971395;28;20031;-30
2022/07/10 02:47:25;;;;;;;7.25;1.50;;;;;;;15.29;69.72;102719.34;4971557;28;20058;-29
2022/07/10 02:49:50;;;;;;;4.95;1.52;;;;;;;15.32;69.36;102708.16;4971562;28;20517;-29
2022/07/10 02:52:15;;;;;;;12.18;1.73;;;;;;;15.35;69.16;102707.84;4971006;28;20106;-29
2022/07/10 02:54:41;;;;;;;15.13;1.58;;;;;;;15.37;69.06;102705.81;4971494;28;20034;-30
2022/07/10 02:57:07;;;;;;;4.88;1.15;;;;;;;15.40;68.83;102702.75;4971203;28;20486;-29
2022/07/10 02:59:33;;;;;;;6.20;1.20;;;;;;;15.42;68.98;102708.84;4969949;28;20522;-29
2022/07/10 03:01:58;;;;;;;6.65;1.30;;;;;;;15.45;68.77;102702.25;4970960;28;20245;-29
2022/07/10 03:04:23;;;;;;;5.45;1.10;;;;;;;15.50;68.61;102699.88;4971059;28;20027;-29
2022/07/10 03:06:48;;;;;;;10.70;1.38;;;;;;;15.48;68.67;102686.50;4972935;28;20030;-29
2022/07/10 03:09:14;;;;;;;9.95;1.50;;;;;;;15.49;68.51;102688.19;4975223;28;20038;-29
2022/07/10 03:11:39;;;;;;;7.00;1.52;;;;;;;15.45;68.87;102683.25;4975025;28;20173;-29
2022/07/10 03:14:05;;;;;;;12.93;1.70;;;;;;;15.41;69.33;102687.34;4975037;28;20046;-30
2022/07/10 03:16:31;;;;;;;7.68;1.30;;;;;;;15.38;69.11;102683.09;4974850;28;20026;-28
2022/07/10 03:18:57;;;;;;;2.70;1.08;;;;;;;15.37;69.22;102674.09;4974560;28;20045;-30
2022/07/10 03:21:22;;;;;;;7.45;1.38;;;;;;;15.37;69.63;102682.22;4974417;28;20427;-29
2022/07/10 03:23:47;;;;;;;7.13;1.75;;;;;;;15.34;69.80;102679.00;4974730;28;20057;-30
2022/07/10 03:26:13;;;;;;;8.82;1.13;;;;;;;15.32;70.22;102686.47;4974745;28;20101;-29
2022/07/10 03:28:38;;;;;;;11.02;1.58;;;;;;;15.28;69.98;102683.25;4966039;28;20071;-30
2022/07/10 03:31:03;;;;;;;7.53;1.30;;;;;;;15.29;70.00;102676.78;4974195;28;20050;-30
2022/07/10 03:33:29;;;;;;;4.40;1.27;;;;;;;15.31;70.41;102676.66;4973925;28;20030;-29
2022/07/10 03:35:54;;;;;;;5.63;1.05;;;;;;;15.38;70.59;102669.53;4973809;28;20046;-28
2022/07/10 03:38:19;;;;;;;7.45;1.60;;;;;;;15.42;70.29;102676.31;4974030;28;20023;-30
2022/07/10 03:40:47;;;;;;;8.05;1.42;;;;;;;15.51;69.94;102672.59;4973781;28;20023;-28
2022/07/10 03:43:13;;;;;;;;;;;;;;;15.58;69.68;102679.00;4974248;28;20370;-30
2022/07/10 03:45:38;;;;;;;9.52;1.30;;;;;;;15.61;69.84;102679.69;4973675;28;19914;-31
2022/07/10 03:48:04;;;;;;;7.43;1.40;;;;;;;15.67;69.29;102668.16;4973979;28;20475;-29
2022/07/10 03:50:29;;;;;;;16.73;1.63;;;;;;;15.70;69.37;102673.28;4973006;28;20422;-29
2022/07/10 03:52:55;;;;;;;11.48;1.80;;;;;;;15.73;69.61;102676.50;4973334;28;20046;-30
2022/07/10 03:55:20;;;;;;;9.75;1.85;;;;;;;15.73;69.69;102673.78;4973624;28;20058;-30
2022/07/10 03:57:55;;;;;;;8.25;1.65;;;;;;;15.76;69.58;102675.31;4973499;28;20019;-29
2022/07/10 04:00:22;;;;;;;9.10;1.38;;;;;;;15.79;69.20;102677.66;4972538;28;20114;-28
2022/07/10 04:02:49;;;;;;;3.25;1.48;;;;;;;15.78;69.24;102668.69;4958486;28;20453;-29
2022/07/10 04:05:14;;;;;;;3.35;1.40;;;;;;;15.82;69.28;102673.75;4973801;28;20094;-29
2022/07/10 04:07:40;;;;;;;11.23;1.70;;;;;;;15.85;69.21;102667.97;4973968;28;20034;-30
2022/07/10 04:10:06;;;;;;;6.65;1.50;;;;;;;15.88;69.39;102662.25;4973377;28;20023;-29
2022/07/10 04:12:31;;;;;;;7.80;1.45;;;;;;;15.88;69.00;102668.50;4973769;28;20090;-30
2022/07/10 04:14:56;;;;;;;9.40;1.40;;;;;;;15.90;69.37;102666.44;4973106;28;20430;-29
2022/07/10 04:17:22;;;;;;;7.85;1.30;;;;;;;15.89;69.17;102667.47;4973583;28;20430;-30
2022/07/10 04:19:47;;;;;;;7.55;1.38;;;;;;;15.93;69.20;102663.41;4972677;28;20027;-30
2022/07/10 04:22:12;;;;;;;8.52;1.50;;;;;;;15.97;69.02;102663.91;4973461;28;20558;-29
2022/07/10 04:24:38;;;;;;;9.95;1.98;;;;;;;15.98;69.00;102671.88;4973026;28;20146;-30
2022/07/10 04:27:04;;;;;;;6.05;1.45;;;;;;;16.03;68.85;102668.63;4985718;28;20030;-29
2022/07/10 04:29:29;;;;;;;7.25;1.15;;;;;;;16.04;68.96;102664.06;4982217;28;20062;-30
2022/07/10 04:31:54;;;;;;;4.53;1.17;;;;;;;16.05;68.96;102671.19;4969869;28;20027;-30
2022/07/10 04:34:20;;;;;;;6.35;1.20;;;;;;;16.10;68.82;102674.22;4970257;28;20046;-29
2022/07/10 04:36:45;;;;;;;7.07;1.42;;;;;;;16.15;68.44;102677.28;4970963;28;20118;-28
2022/07/10 04:39:11;;;;;;;8.38;1.65;;;;;;;16.12;68.41;102677.63;4970432;28;20031;-28
2022/07/10 04:41:36;;;;;;;7.90;1.50;;;;;;;16.12;68.37;102680.34;4971206;28;20054;-29
2022/07/10 04:44:02;;;;;;;7.57;1.38;;;;;;;16.11;68.64;102681.34;4969323;28;20125;-30
2022/07/10 04:46:27;;;;;;;7.35;1.55;;;;;;;16.13;68.63;102680.16;4970498;28;20027;-30
2022/07/10 04:48:52;;;;;;;5.85;1.40;;;;;;;16.15;68.78;102677.28;4970355;28;20038;-30
2022/07/10 04:51:18;;;;;;;8.43;1.65;;;;;;;16.20;68.69;102678.44;4970416;28;20113;-30
2022/07/10 04:53:43;;;;;;;10.25;1.70;;;;;;;16.22;68.27;102684.56;4970466;28;20029;-29
2022/07/10 04:56:08;;;;;;;7.53;1.30;;;;;;;16.25;68.70;102683.34;4970516;28;20035;-29
2022/07/10 04:58:34;;;;;;;8.88;1.40;;;;;;;16.29;68.75;102684.69;4970456;28;20042;-30
2022/07/10 05:00:59;;;;;;;5.50;1.15;;;;;;;16.37;68.29;102681.94;4968103;28;20213;-29
2022/07/10 05:03:24;;;;;;;12.68;1.42;;;;;;;16.40;67.73;102672.59;4970400;28;20451;-28
2022/07/10 05:05:50;;;;;;;5.22;1.10;;;;;;;16.42;67.58;102678.69;4969044;28;20035;-30
2022/07/10 05:08:15;;;;;;;10.35;1.52;;;;;;;16.42;67.88;102679.53;4969929;28;20066;-29
2022/07/10 05:10:40;;;;;;;7.95;1.45;;;;;;;16.43;67.74;102686.69;4970565;28;20027;-29
2022/07/10 05:13:06;;;;;;;8.25;1.40;;;;;;;16.42;68.17;102689.56;4970042;28;20054;-29
2022/07/10 05:15:31;;;;;;;10.50;1.30;;;;;;;16.45;68.19;102687.34;4970159;28;20023;-30
2022/07/10 05:17:57;;;;;;;9.15;1.33;;;;;;;16.51;67.66;102688.53;4969548;28;20496;-29
2022/07/10 05:20:22;;;;;;;6.32;1.13;;;;;;;16.52;67.89;102692.94;4969937;28;20037;-29
2022/07/10 05:22:48;;;;;;;6.38;1.20;;;;;;;16.55;67.79;102676.25;4969995;28;20030;-29
2022/07/10 05:25:13;;;;;;;4.38;1.23;;;;;;;16.64;67.51;102679.78;4969836;28;20031;-29
2022/07/10 05:27:38;;;;;;;3.70;1.08;;;;;;;16.71;67.22;102683.50;4979880;28;20026;-29
2022/07/10 05:30:04;;;;;;;6.47;1.60;;;;;;;16.72;67.40;102685.22;4969477;28;20035;-29
2022/07/10 05:32:30;;;;;;;8.90;1.27;;;;;;;16.78;67.22;102689.13;4969527;28;20533;-30
2022/07/10 05:34:58;;;;;;;8.23;1.35;;;;;;;16.82;67.00;102679.56;4969487;28;20097;-30
2022/07/10 05:37:23;;;;;;;5.35;1.10;;;;;;;16.80;67.13;102685.19;4969962;28;20484;-30
2022/07/10 05:39:49;;;;;;;6.43;1.60;;;;;;;16.87;66.64;102678.00;4969754;28;20034;-29
2022/07/10 05:42:14;;;;;;;9.77;1.88;;;;;;;16.86;66.87;102679.03;4970071;28;20033;-29
2022/07/10 05:44:39;;;;;;;6.15;1.10;;;;;;;16.90;67.04;102676.78;4969199;28;20368;-28
2022/07/10 05:47:06;;;;;;;5.00;1.27;;;;;;;16.99;66.56;102680.31;4969615;28;20045;-29
2022/07/10 05:49:32;;;;;;;5.47;0.93;;;;;;;16.98;66.38;102679.50;4969756;28;20067;-29
2022/07/10 05:51:57;;;;;;;5.20;1.20;;;;;;;17.07;66.36;102666.66;4968417;28;20035;-29
2022/07/10 05:54:23;;;;;;;5.05;1.35;;;;;;;17.21;66.26;102676.75;4969629;28;20516;-29
2022/07/10 05:56:48;;;;;;;4.30;1.30;;;;;;;17.33;66.09;102680.75;4970367;28;20106;-29
2022/07/10 05:59:13;;;;;;;6.43;1.52;;;;;;;17.42;65.31;102680.69;4970293;28;20026;-28
2022/07/10 06:01:39;;;;;;;5.07;1.30;;;;;;;17.41;65.57;102684.44;4966908;28;20034;-30
2022/07/10 06:04:04;;;;;;;7.57;1.33;;;;;;;17.38;66.46;102673.91;4969611;28;20837;-30
2022/07/10 06:06:29;;;;;;;4.28;1.20;;;;;;;17.48;65.76;102680.81;4969087;28;20030;-29
2022/07/10 06:08:55;;;;;;;4.60;1.35;;;;;;;17.52;65.56;102678.56;4968799;28;20061;-30
2022/07/10 06:11:20;;;;;;;6.43;1.67;;;;;;;17.54;65.18;102673.78;4969075;28;20634;-30
2022/07/10 06:13:45;;;;;;;8.48;1.30;;;;;;;17.61;65.08;102680.16;4968861;28;20046;-29
2022/07/10 06:16:11;;;;;;;7.60;2.05;;;;;;;17.68;65.26;102675.69;4968993;28;20031;-29
2022/07/10 06:18:36;;;;;;;6.63;1.35;;;;;;;17.85;64.63;102676.44;4968702;28;20077;-29
2022/07/10 06:21:01;;;;;;;3.28;1.33;;;;;;;18.06;64.29;102666.66;4969376;28;20402;-29
2022/07/10 06:23:27;;;;;;;5.47;1.40;;;;;;;18.24;63.90;102671.75;4968388;28;20019;-29
2022/07/10 06:25:52;;;;;;;2.92;1.30;;;;;;;18.40;63.41;102686.03;4968939;28;20058;-29
2022/07/10 06:28:18;;;;;;;6.72;1.55;;;;;;;18.60;62.75;102672.66;4969397;28;20026;-30
2022/07/10 06:30:46;;;;;;;5.45;1.35;;;;;;;18.80;61.66;102672.06;4969626;28;20062;-30
2022/07/10 06:33:11;;;;;;;4.85;1.60;;;;;;;18.79;61.28;102681.28;4969075;28;20453;-30
2022/07/10 06:35:36;;;;;;;5.63;1.30;;;;;;;18.99;61.59;102674.19;4969140;28;20129;-29
2022/07/10 06:38:02;;;;;;;4.90;1.30;;;;;;;19.28;60.70;102666.91;4969056;28;20110;-29
2022/07/10 06:40:28;;;;;;;7.20;1.50;;;;;;;19.46;60.01;102663.72;4969092;28;20113;-29
2022/07/10 06:42:54;;;;;;;8.37;1.53;;;;;;;19.37;59.45;102667.63;4972112;28;20025;-29
2022/07/10 06:45:19;;;;;;;6.78;1.33;;;;;;;19.29;59.97;102668.59;4972928;28;20411;-29
2022/07/10 06:47:57;;;;;;;3.53;1.23;;;;;;;19.20;60.42;102673.34;4970638;28;20027;-30
2022/07/10 06:50:23;;;;;;;;;;;;;;;19.28;61.07;102678.69;4974076;28;20072;-29
2022/07/10 06:52:49;;;;;;;8.60;1.30;;;;;;;19.50;60.50;102682.22;4971796;28;19968;-29
2022/07/10 06:55:15;;;;;;;2.45;1.25;;;;;;;19.55;58.93;102678.91;4973199;28;20026;-30
2022/07/10 06:57:40;;;;;;;5.82;1.30;;;;;;;19.65;59.50;102667.66;4972770;28;20518;-31
2022/07/10 07:00:06;;;;;;;2.10;1.10;;;;;;;19.70;58.66;102666.06;4974072;28;20043;-29
2022/07/10 07:02:32;;;;;;;7.95;1.52;;;;;;;19.97;58.71;102677.16;4980352;28;20490;-30
2022/07/10 07:04:57;;;;;;;3.72;1.48;;;;;;;20.57;56.21;102683.00;4975630;28;20096;-27
2022/07/10 07:07:22;;;;;;;6.70;1.60;;;;;;;20.70;55.56;102677.59;4986873;28;20107;-27
2022/07/10 07:09:50;;;;;;;4.22;1.20;;;;;;;20.42;56.62;102685.00;4975405;28;20379;-30
2022/07/10 07:12:16;;;;;;;4.65;1.20;;;;;;;20.48;55.91;102685.03;4975810;28;20033;-28
2022/07/10 07:14:41;;;;;;;5.72;1.35;;;;;;;20.52;55.92;102683.59;4975150;28;20144;-30
2022/07/10 07:17:08;;;;;;;5.30;1.17;;;;;;;20.51;55.55;102687.38;4974956;28;20398;-30
2022/07/10 07:25:04;;;;;;;5.20;1.20;;;;;;;19.87;56.99;102685.72;4974420;28;20101;-30
2022/07/10 07:27:29;;;;;;;7.38;1.45;;;;;;;19.77;57.43;102684.38;4974268;28;20058;-30
2022/07/10 07:29:54;;;;;;;7.55;1.33;;;;;;;19.53;58.26;102692.75;4975032;28;20201;-30
2022/07/10 07:32:20;;;;;;;5.60;1.40;;;;;;;19.41;59.22;102683.44;4975068;28;20089;-30
2022/07/10 07:34:45;;;;;;;7.07;1.33;;;;;;;19.36;59.93;102685.91;4974984;28;20054;-29
2022/07/10 07:37:10;;;;;;;4.10;1.30;;;;;;;19.48;59.06;102687.06;4974301;28;20035;-29
2022/07/10 07:39:36;;;;;;;4.53;1.15;;;;;;;19.69;58.69;102680.72;4974581;28;20470;-29
2022/07/10 07:42:02;;;;;;;3.15;1.05;;;;;;;19.94;57.83;102685.78;4988321;28;20516;-29
2022/07/10 07:44:27;;;;;;;3.70;1.08;;;;;;;20.30;57.06;102680.13;4993729;28;20026;-30
2022/07/10 07:46:52;;;;;;;3.83;1.23;;;;;;;20.61;55.66;102689.75;4974322;28;20023;-30
2022/07/10 07:49:19;;;;;;;2.70;0.80;;;;;;;20.83;54.52;102688.59;4974237;28;20499;-30
2022/07/10 07:51:44;;;;;;;8.15;1.30;;;;;;;20.83;54.28;102687.75;4974274;28;20077;-29
2022/07/10 07:54:10;;;;;;;2.50;1.02;;;;;;;20.72;54.83;102691.91;4972829;28;20031;-30
2022/07/10 07:56:35;;;;;;;2.88;1.02;;;;;;;20.67;54.71;102694.41;4974783;28;20421;-30
2022/07/10 07:59:00;;;;;;;2.17;0.98;;;;;;;20.39;55.29;102689.81;4974252;28;20090;-29
2022/07/10 08:01:26;;;;;;;6.55;1.05;;;;;;;20.39;56.25;102691.72;4974572;28;20065;-28
2022/07/10 08:03:51;;;;;;;4.30;1.08;;;;;;;20.68;55.18;102695.25;4974405;28;20027;-29
2022/07/10 08:06:16;;;;;;;6.53;1.10;;;;;;;21.11;53.81;102687.59;4974700;28;20058;-29
2022/07/10 08:08:42;;;;;;;5.30;1.55;;;;;;;21.34;54.31;102684.47;4974746;28;20026;-30
2022/07/10 08:11:07;;;;;;;7.63;1.10;;;;;;;22.15;51.55;102688.88;4974380;28;20561;-30
2022/07/10 08:13:34;;;;;;;4.03;1.20;;;;;;;23.33;49.74;102683.09;4974690;28;20121;-30
2022/07/10 08:15:59;;;;;;;2.78;1.13;;;;;;;24.13;47.12;102695.31;4974311;28;20391;-30
2022/07/10 08:18:25;;;;;;;5.10;1.45;;;;;;;24.37;45.71;102694.41;4973918;28;20027;-31
2022/07/10 08:20:50;;;;;;;5.43;1.05;;;;;;;24.15;46.07;102685.78;4974317;28;20035;-30
2022/07/10 08:23:16;;;;;;;2.38;1.10;;;;;;;23.51;47.94;102687.81;4973972;28;20065;-30
2022/07/10 08:25:41;;;;;;;5.68;1.60;;;;;;;23.11;48.75;102687.25;4973627;28;20054;-29
2022/07/10 08:28:06;;;;;;;2.97;1.00;;;;;;;22.62;49.30;102697.84;4973417;28;20023;-30
2022/07/10 08:30:32;;;;;;;3.85;1.40;;;;;;;22.33;50.23;102694.56;4973270;28;20513;-30
2022/07/10 08:32:58;;;;;;;6.35;1.60;;;;;;;22.11;52.25;102691.19;4973441;28;20042;-30
2022/07/10 08:35:23;;;;;;;5.38;1.02;;;;;;;22.24;51.24;102690.34;4972097;28;20046;-30
2022/07/10 08:37:49;;;;;;;6.50;1.50;;;;;;;22.28;51.09;102690.78;4972531;28;20474;-29
2022/07/10 08:40:15;;;;;;;5.55;1.20;;;;;;;22.01;51.53;102688.09;4972919;28;20126;-29
2022/07/10 08:42:43;;;;;;;4.63;1.40;;;;;;;21.73;50.98;102690.22;4973497;28;20073;-30
2022/07/10 08:45:09;;;;;;;3.63;1.30;;;;;;;21.39;52.86;102687.47;4972634;28;20110;-30
2022/07/10 08:47:35;;;;;;;4.18;0.98;;;;;;;21.15;52.86;102694.34;4973206;28;20401;-31
2022/07/10 08:50:00;;;;;;;7.60;1.58;;;;;;;20.96;53.13;102693.25;4973470;28;20045;-30
2022/07/10 08:52:32;;;;;;;5.78;1.05;;;;;;;20.90;52.55;102690.47;4973625;28;20109;-29
2022/07/10 08:54:58;;;;;;;4.35;1.42;;;;;;;20.59;54.07;102692.69;4972185;28;20446;-30
2022/07/10 08:57:24;;;;;;;1.98;0.95;;;;;;;20.41;54.58;102691.53;4972001;28;20031;-30
2022/07/10 08:59:49;;;;;;;6.38;1.45;;;;;;;20.30;55.05;102681.97;4972952;28;20037;-30
2022/07/10 09:02:15;;;;;;;4.53;1.23;;;;;;;20.34;54.95;102678.66;4973661;28;20037;-30
2022/07/10 09:04:41;;;;;;;4.78;1.38;;;;;;;20.25;54.36;102668.94;4972858;28;20113;-30
2022/07/10 09:07:06;;;;;;;4.68;1.23;;;;;;;20.30;54.08;102677.38;4973180;28;20102;-30
2022/07/10 09:09:31;;;;;;;5.63;1.17;;;;;;;20.25;54.52;102679.00;4973443;28;20601;-30
2022/07/10 09:11:57;;;;;;;2.55;1.13;;;;;;;20.31;51.45;102673.59;4973047;28;20038;-29
2022/07/10 09:14:25;;;;;;;5.57;1.10;;;;;;;20.38;52.06;102670.91;4972611;28;20035;-29
2022/07/10 09:16:51;;;;;;;3.92;1.42;;;;;;;20.47;53.19;102666.09;4972631;28;20490;-30
2022/07/10 09:19:25;;;;;;;3.13;1.20;;;;;;;20.34;52.35;102672.34;4972875;28;20057;-30
2022/07/10 09:21:54;;;;;;;4.18;1.33;;;;;;;20.35;53.18;102674.03;4973296;28;20038;-29
2022/07/10 09:24:20;;;;;;;4.95;1.27;;;;;;;20.45;53.87;102676.38;4973176;28;20030;-30
2022/07/10 09:26:54;;;;;;;3.55;1.00;;;;;;;20.49;53.25;102675.78;4973362;28;20110;-30
2022/07/10 09:29:20;;;;;;;4.10;1.00;;;;;;;20.48;53.63;102674.09;4973036;28;20109;-29
2022/07/10 09:31:48;;;;;;;2.92;1.10;;;;;;;20.43;53.06;102665.63;4973312;28;20074;-30
2022/07/10 09:34:13;;;;;;;2.60;1.10;;;;;;;20.51;52.98;102672.84;4973060;28;20035;-30
2022/07/10 09:36:38;;;;;;;5.47;1.20;;;;;;;20.59;52.69;102659.88;4973337;28;20471;-29
2022/07/10 09:39:05;;;;;;;5.32;1.27;;;;;;;20.73;53.02;102666.22;4972853;28;20304;-30
2022/07/10 09:41:31;;;;;;;5.82;1.50;;;;;;;20.99;51.93;102670.09;4972129;28;20713;-30
2022/07/10 09:43:59;;;;;;;4.73;1.10;;;;;;;20.92;51.79;102672.81;4972296;28;20487;-29
2022/07/10 09:46:31;;;;;;;4.50;1.45;;;;;;;20.97;51.58;102664.81;4972380;28;20030;-30
2022/07/10 09:49:13;;;;;;;3.83;1.10;;;;;;;21.10;51.88;102669.47;4972800;28;20082;-29
2022/07/10 09:51:40;;;;;;;4.05;1.10;;;;;;;21.10;53.09;102661.28;4971143;28;20038;-30
2022/07/10 09:54:09;;;;;;;9.48;1.63;;;;;;;21.15;53.44;102663.41;4972377;28;20428;-30
2022/07/10 09:56:46;;;;;;;5.47;1.40;;;;;;;21.32;52.96;102659.19;4974791;28;20031;-31
2022/07/10 09:59:16;;;;;;;8.68;1.65;;;;;;;21.25;53.53;102659.19;4972483;28;20045;-30
2022/07/10 10:01:50;;;;;;;7.72;1.45;;;;;;;21.46;53.82;102660.09;4972319;28;20034;-30
2022/07/10 10:04:18;;;;;;;6.65;1.45;;;;;;;21.71;52.35;102665.75;4972748;28;20049;-30
2022/07/10 10:06:45;;;;;;;4.65;1.45;;;;;;;21.82;52.64;102664.25;4972318;28;20033;-30
2022/07/10 10:09:34;;;;;;;7.68;1.48;;;;;;;21.99;52.04;102660.03;4971520;28;20494;-30
2022/07/10 10:12:04;;;;;;;8.55;1.45;;;;;;;22.09;50.43;102652.22;4973075;28;20454;-30
2022/07/10 10:14:29;;;;;;;5.25;1.20;;;;;;;22.09;49.70;102649.47;4972092;28;20267;-30
2022/07/10 10:16:56;;;;;;;7.75;1.17;;;;;;;22.20;50.35;102655.38;4971721;28;20043;-29
2022/07/10 10:22:07;;;;;;;3.38;1.20;;;;;;;22.67;46.35;102647.78;4972092;28;20442;-29
2022/07/10 10:24:34;;;;;;;5.63;1.40;;;;;;;22.75;46.32;102647.53;4971146;28;20141;-29
2022/07/10 10:26:59;;;;;;;4.72;1.05;;;;;;;22.73;46.81;102644.16;4970562;28;20031;-30
2022/07/10 10:29:25;;;;;;;2.13;1.10;;;;;;;22.88;45.73;102646.59;4972987;28;20038;-29
2022/07/10 10:31:51;;;;;;;1.95;1.02;;;;;;;22.93;45.71;102647.66;4972283;28;20023;-30
2022/07/10 10:34:55;;;;;;;4.38;1.35;;;;;;;22.81;46.14;102641.16;4970501;28;20117;-30
2022/07/10 10:37:27;;;;;;;4.72;1.00;;;;;;;22.98;46.44;102636.84;4973202;28;20106;-29
2022/07/10 10:39:53;;;;;;;3.97;1.30;;;;;;;22.92;45.20;102632.22;4972325;28;20463;-30
2022/07/10 10:42:37;;;;;;;5.07;1.20;;;;;;;22.97;46.30;102639.84;4972319;28;20427;-30
2022/07/10 10:45:25;;;;;;;4.18;1.30;;;;;;;23.11;45.00;102635.06;4969122;28;20030;-30
2022/07/10 10:48:01;;;;;;;2.72;1.00;;;;;;;23.34;44.16;102634.50;4966954;28;20146;-30
2022/07/10 10:50:42;;;;;;;7.25;1.30;;;;;;;23.16;42.84;102627.00;4971818;28;20027;-30
2022/07/10 10:53:22;;;;;;;1.52;0.85;;;;;;;23.34;41.99;102635.31;4971197;28;20038;-30
2022/07/10 10:55:59;;;;;;;3.17;1.20;;;;;;;23.85;42.51;102636.97;4971806;28;20367;-30
2022/07/10 10:58:25;;;;;;;;;;;;;;;24.30;42.22;102639.47;4972212;28;20030;-28
2022/07/10 11:00:50;;;;;;;4.07;1.10;;;;;;;24.91;41.76;102628.50;4967251;28;20356;-30
2022/07/10 11:03:18;;;;;;;5.03;0.95;;;;;;;25.43;37.83;102631.50;4958484;28;20387;-30
2022/07/10 11:05:44;;;;;;;4.85;1.13;;;;;;;25.98;36.75;102639.44;4971486;28;20045;-30
2022/07/10 11:08:10;;;;;;;5.30;1.00;;;;;;;26.37;35.37;102642.47;4968402;28;20425;-30
2022/07/10 11:10:41;;;;;;;2.42;0.68;;;;;;;26.07;35.86;102642.69;4961423;28;20493;-31
2022/07/10 11:13:13;;;;;;;1.35;0.73;;;;;;;25.89;35.94;102634.53;4971629;28;20034;-31
2022/07/10 11:15:47;;;;;;;3.35;1.33;;;;;;;25.58;35.93;102631.88;4971367;28;20035;-28
2022/07/10 11:18:16;;;;;;;3.30;0.90;;;;;;;25.53;36.32;102626.22;4971735;28;20097;-30
2022/07/10 11:20:44;;;;;;;2.50;0.82;;;;;;;25.36;38.21;102609.56;4971571;28;20101;-28
2022/07/10 11:23:17;;;;;;;3.85;1.20;;;;;;;25.55;36.43;102617.75;4971299;28;20027;-28
2022/07/10 11:26:00;;;;;;;3.88;1.98;;;;;;;25.51;36.47;102616.53;4971553;28;20058;-30
2022/07/10 11:28:32;;;;;;;2.78;1.27;;;;;;;25.51;35.65;102617.34;4958424;28;20106;-30
2022/07/10 11:30:57;;;;;;;1.90;0.90;;;;;;;25.39;35.28;102614.59;4974657;28;20031;-31
2022/07/10 11:33:23;;;;;;;2.13;1.00;;;;;;;25.80;35.88;102601.78;4974739;28;20081;-30